sensor_id;sensor_type;location;lat;lon;timestamp;P1;durP1;ratioP1;P2;durP2;ratioP2
4397;SDS011;2213;49.720;7.296;2022-09-02T00:01:59;2.73;;;2.50;;
4397;SDS011;2213;49.720;7.296;2022-09-02T00:04:28;4.30;;;3.60;;
4397;SDS011;2213;49.720;7.296;2022-09-02T00:06:57;3.20;;;2.90;;
4397;SDS011;2213;49.720;7.296;2022-09-02T00:09:25;4.87;;;3.20;;
4397;SDS011;2213;49.720;7.296;2022-09-02T00:11:55;5.90;;;3.30;;
4397;SDS011;2213;49.720;7.296;2022-09-02T00:14:27;6.73;;;3.60;;
4397;SDS011;2213;49.720;7.296;2022-09-02T00:16:59;3.60;;;2.97;;
4397;SDS011;2213;49.720;7.296;2022-09-02T00:19:30;3.40;;;2.93;;
4397;SDS011;2213;49.720;7.296;2022-09-02T00:21:59;3.60;;;3.27;;
4397;SDS011;2213;49.720;7.296;2022-09-02T00:24:29;5.70;;;3.70;;
4397;SDS011;2213;49.720;7.296;2022-09-02T00:26:58;4.87;;;4.07;;
4397;SDS011;2213;49.720;7.296;2022-09-02T00:29:29;4.47;;;3.20;;
4397;SDS011;2213;49.720;7.296;2022-09-02T00:31:58;5.17;;;3.60;;
4397;SDS011;2213;49.720;7.296;2022-09-02T00:34:27;4.97;;;3.47;;
4397;SDS011;2213;49.720;7.296;2022-09-02T00:36:56;4.27;;;3.33;;
4397;SDS011;2213;49.720;7.296;2022-09-02T00:39:25;5.23;;;3.50;;
4397;SDS011;2213;49.720;7.296;2022-09-02T00:41:54;4.77;;;3.77;;
4397;SDS011;2213;49.720;7.296;2022-09-02T00:44:23;5.57;;;3.87;;
4397;SDS011;2213;49.720;7.296;2022-09-02T00:46:53;5.40;;;3.43;;
4397;SDS011;2213;49.720;7.296;2022-09-02T00:49:22;4.07;;;3.60;;
4397;SDS011;2213;49.720;7.296;2022-09-02T00:51:56;4.37;;;3.27;;
4397;SDS011;2213;49.720;7.296;2022-09-02T00:54:31;4.10;;;3.30;;
4397;SDS011;2213;49.720;7.296;2022-09-02T00:57:06;4.07;;;3.67;;
4397;SDS011;2213;49.720;7.296;2022-09-02T00:59:42;4.20;;;2.90;;
4397;SDS011;2213;49.720;7.296;2022-09-02T01:02:22;3.90;;;3.50;;
4397;SDS011;2213;49.720;7.296;2022-09-02T01:04:54;6.07;;;3.10;;
4397;SDS011;2213;49.720;7.296;2022-09-02T01:07:24;3.47;;;3.17;;
4397;SDS011;2213;49.720;7.296;2022-09-02T01:09:59;6.60;;;3.67;;
4397;SDS011;2213;49.720;7.296;2022-09-02T01:12:31;4.67;;;3.27;;
4397;SDS011;2213;49.720;7.296;2022-09-02T01:15:01;3.90;;;3.10;;
4397;SDS011;2213;49.720;7.296;2022-09-02T01:17:35;4.90;;;3.60;;
4397;SDS011;2213;49.720;7.296;2022-09-02T01:20:11;4.00;;;3.27;;
4397;SDS011;2213;49.720;7.296;2022-09-02T01:22:46;4.00;;;3.40;;
4397;SDS011;2213;49.720;7.296;2022-09-02T01:25:19;3.43;;;3.03;;
4397;SDS011;2213;49.720;7.296;2022-09-02T01:27:52;6.57;;;3.43;;
4397;SDS011;2213;49.720;7.296;2022-09-02T01:30:28;5.13;;;3.23;;
4397;SDS011;2213;49.720;7.296;2022-09-02T01:32:58;3.70;;;3.00;;
4397;SDS011;2213;49.720;7.296;2022-09-02T01:35:28;5.23;;;3.50;;
4397;SDS011;2213;49.720;7.296;2022-09-02T01:37:59;3.90;;;3.10;;
4397;SDS011;2213;49.720;7.296;2022-09-02T01:40:30;3.40;;;3.10;;
4397;SDS011;2213;49.720;7.296;2022-09-02T01:43:01;3.87;;;3.07;;
4397;SDS011;2213;49.720;7.296;2022-09-02T01:45:33;3.77;;;3.17;;
4397;SDS011;2213;49.720;7.296;2022-09-02T01:48:04;4.50;;;3.30;;
4397;SDS011;2213;49.720;7.296;2022-09-02T01:50:35;4.10;;;3.43;;
4397;SDS011;2213;49.720;7.296;2022-09-02T01:53:14;4.63;;;3.73;;
4397;SDS011;2213;49.720;7.296;2022-09-02T01:55:42;3.80;;;3.07;;
4397;SDS011;2213;49.720;7.296;2022-09-02T01:58:12;5.13;;;3.93;;
4397;SDS011;2213;49.720;7.296;2022-09-02T02:00:41;6.67;;;3.57;;
4397;SDS011;2213;49.720;7.296;2022-09-02T02:03:10;4.13;;;3.07;;
4397;SDS011;2213;49.720;7.296;2022-09-02T02:05:39;5.00;;;3.57;;
4397;SDS011;2213;49.720;7.296;2022-09-02T02:08:08;4.80;;;3.00;;
4397;SDS011;2213;49.720;7.296;2022-09-02T02:10:40;5.00;;;3.30;;
4397;SDS011;2213;49.720;7.296;2022-09-02T02:13:10;3.37;;;3.03;;
4397;SDS011;2213;49.720;7.296;2022-09-02T02:15:39;4.10;;;3.10;;
4397;SDS011;2213;49.720;7.296;2022-09-02T02:18:10;5.63;;;3.30;;
4397;SDS011;2213;49.720;7.296;2022-09-02T02:20:40;4.00;;;3.17;;
4397;SDS011;2213;49.720;7.296;2022-09-02T02:23:10;5.00;;;3.17;;
4397;SDS011;2213;49.720;7.296;2022-09-02T02:25:40;4.70;;;3.50;;
4397;SDS011;2213;49.720;7.296;2022-09-02T02:28:09;7.20;;;3.60;;
4397;SDS011;2213;49.720;7.296;2022-09-02T02:30:37;3.80;;;3.33;;
4397;SDS011;2213;49.720;7.296;2022-09-02T02:33:07;3.83;;;3.33;;
4397;SDS011;2213;49.720;7.296;2022-09-02T02:35:36;3.77;;;3.07;;
4397;SDS011;2213;49.720;7.296;2022-09-02T02:38:05;3.90;;;3.10;;
4397;SDS011;2213;49.720;7.296;2022-09-02T02:40:42;6.57;;;3.17;;
4397;SDS011;2213;49.720;7.296;2022-09-02T02:43:11;5.83;;;3.60;;
4397;SDS011;2213;49.720;7.296;2022-09-02T02:45:40;4.10;;;3.40;;
4397;SDS011;2213;49.720;7.296;2022-09-02T02:48:10;6.00;;;3.70;;
4397;SDS011;2213;49.720;7.296;2022-09-02T02:50:38;4.13;;;3.30;;
4397;SDS011;2213;49.720;7.296;2022-09-02T02:53:08;4.80;;;3.40;;
4397;SDS011;2213;49.720;7.296;2022-09-02T02:55:39;4.00;;;3.47;;
4397;SDS011;2213;49.720;7.296;2022-09-02T02:58:10;13.27;;;6.60;;
4397;SDS011;2213;49.720;7.296;2022-09-02T03:00:42;4.00;;;3.50;;
4397;SDS011;2213;49.720;7.296;2022-09-02T03:03:12;6.53;;;3.23;;
4397;SDS011;2213;49.720;7.296;2022-09-02T03:05:45;4.17;;;3.63;;
4397;SDS011;2213;49.720;7.296;2022-09-02T03:08:16;4.70;;;3.30;;
4397;SDS011;2213;49.720;7.296;2022-09-02T03:10:48;3.53;;;3.23;;
4397;SDS011;2213;49.720;7.296;2022-09-02T03:13:21;4.20;;;3.33;;
4397;SDS011;2213;49.720;7.296;2022-09-02T03:15:54;4.27;;;3.53;;
4397;SDS011;2213;49.720;7.296;2022-09-02T03:18:23;8.43;;;4.17;;
4397;SDS011;2213;49.720;7.296;2022-09-02T03:20:52;4.93;;;3.70;;
4397;SDS011;2213;49.720;7.296;2022-09-02T03:23:21;3.60;;;3.30;;
4397;SDS011;2213;49.720;7.296;2022-09-02T03:25:51;6.00;;;3.87;;
4397;SDS011;2213;49.720;7.296;2022-09-02T03:28:21;3.70;;;3.27;;
4397;SDS011;2213;49.720;7.296;2022-09-02T03:30:50;4.00;;;3.60;;
4397;SDS011;2213;49.720;7.296;2022-09-02T03:33:21;6.13;;;2.77;;
4397;SDS011;2213;49.720;7.296;2022-09-02T03:35:50;5.50;;;3.70;;
4397;SDS011;2213;49.720;7.296;2022-09-02T03:38:20;6.70;;;4.10;;
4397;SDS011;2213;49.720;7.296;2022-09-02T03:40:49;4.03;;;3.57;;
4397;SDS011;2213;49.720;7.296;2022-09-02T03:43:22;5.40;;;2.93;;
4397;SDS011;2213;49.720;7.296;2022-09-02T03:45:50;4.60;;;3.63;;
4397;SDS011;2213;49.720;7.296;2022-09-02T03:48:21;2.87;;;2.57;;
4397;SDS011;2213;49.720;7.296;2022-09-02T03:50:50;5.23;;;3.53;;
4397;SDS011;2213;49.720;7.296;2022-09-02T03:53:19;5.30;;;3.67;;
4397;SDS011;2213;49.720;7.296;2022-09-02T03:55:49;3.70;;;3.30;;
4397;SDS011;2213;49.720;7.296;2022-09-02T03:58:17;4.47;;;3.40;;
4397;SDS011;2213;49.720;7.296;2022-09-02T04:00:50;3.93;;;3.53;;
4397;SDS011;2213;49.720;7.296;2022-09-02T04:03:19;4.80;;;3.50;;
4397;SDS011;2213;49.720;7.296;2022-09-02T04:05:49;4.00;;;3.10;;
4397;SDS011;2213;49.720;7.296;2022-09-02T04:08:18;6.37;;;4.10;;
4397;SDS011;2213;49.720;7.296;2022-09-02T04:10:47;4.73;;;3.10;;
4397;SDS011;2213;49.720;7.296;2022-09-02T04:13:17;3.93;;;3.37;;
4397;SDS011;2213;49.720;7.296;2022-09-02T04:15:46;4.17;;;3.23;;
4397;SDS011;2213;49.720;7.296;2022-09-02T04:22:00;5.33;;;3.30;;
4397;SDS011;2213;49.720;7.296;2022-09-02T04:24:30;4.20;;;3.43;;
4397;SDS011;2213;49.720;7.296;2022-09-02T04:27:00;4.83;;;3.30;;
4397;SDS011;2213;49.720;7.296;2022-09-02T04:29:29;5.90;;;3.40;;
4397;SDS011;2213;49.720;7.296;2022-09-02T04:31:59;3.40;;;3.10;;
4397;SDS011;2213;49.720;7.296;2022-09-02T04:34:28;7.50;;;3.60;;
4397;SDS011;2213;49.720;7.296;2022-09-02T04:36:57;4.13;;;3.73;;
4397;SDS011;2213;49.720;7.296;2022-09-02T04:39:27;3.77;;;3.20;;
4397;SDS011;2213;49.720;7.296;2022-09-02T04:41:56;5.30;;;3.57;;
4397;SDS011;2213;49.720;7.296;2022-09-02T04:44:25;5.17;;;3.67;;
4397;SDS011;2213;49.720;7.296;2022-09-02T04:46:55;4.40;;;3.27;;
4397;SDS011;2213;49.720;7.296;2022-09-02T04:49:24;4.90;;;3.47;;
4397;SDS011;2213;49.720;7.296;2022-09-02T04:51:57;4.30;;;3.53;;
4397;SDS011;2213;49.720;7.296;2022-09-02T04:54:28;4.30;;;2.80;;
4397;SDS011;2213;49.720;7.296;2022-09-02T04:56:58;6.07;;;3.50;;
4397;SDS011;2213;49.720;7.296;2022-09-02T04:59:27;5.40;;;3.30;;
4397;SDS011;2213;49.720;7.296;2022-09-02T05:01:56;7.30;;;3.83;;
4397;SDS011;2213;49.720;7.296;2022-09-02T05:04:24;13.90;;;3.40;;
4397;SDS011;2213;49.720;7.296;2022-09-02T05:06:53;3.73;;;3.43;;
4397;SDS011;2213;49.720;7.296;2022-09-02T05:09:24;3.60;;;3.20;;
4397;SDS011;2213;49.720;7.296;2022-09-02T05:11:54;3.60;;;2.97;;
4397;SDS011;2213;49.720;7.296;2022-09-02T05:14:23;4.33;;;3.27;;
4397;SDS011;2213;49.720;7.296;2022-09-02T05:16:54;4.60;;;3.57;;
4397;SDS011;2213;49.720;7.296;2022-09-02T05:19:32;3.70;;;2.93;;
4397;SDS011;2213;49.720;7.296;2022-09-02T05:22:02;8.20;;;4.70;;
4397;SDS011;2213;49.720;7.296;2022-09-02T05:24:31;4.53;;;3.17;;
4397;SDS011;2213;49.720;7.296;2022-09-02T05:27:02;3.93;;;3.40;;
4397;SDS011;2213;49.720;7.296;2022-09-02T05:29:31;4.13;;;3.30;;
4397;SDS011;2213;49.720;7.296;2022-09-02T05:31:59;4.63;;;3.23;;
4397;SDS011;2213;49.720;7.296;2022-09-02T05:34:29;8.60;;;3.30;;
4397;SDS011;2213;49.720;7.296;2022-09-02T05:36:59;12.60;;;4.03;;
4397;SDS011;2213;49.720;7.296;2022-09-02T05:39:28;4.30;;;3.60;;
4397;SDS011;2213;49.720;7.296;2022-09-02T05:41:58;3.70;;;3.30;;
4397;SDS011;2213;49.720;7.296;2022-09-02T05:44:28;4.27;;;3.30;;
4397;SDS011;2213;49.720;7.296;2022-09-02T05:46:57;5.00;;;3.53;;
4397;SDS011;2213;49.720;7.296;2022-09-02T05:49:27;3.50;;;3.20;;
4397;SDS011;2213;49.720;7.296;2022-09-02T05:51:56;4.70;;;3.03;;
4397;SDS011;2213;49.720;7.296;2022-09-02T05:54:28;4.57;;;3.80;;
4397;SDS011;2213;49.720;7.296;2022-09-02T05:57:00;7.30;;;3.73;;
4397;SDS011;2213;49.720;7.296;2022-09-02T05:59:34;5.47;;;3.00;;
4397;SDS011;2213;49.720;7.296;2022-09-02T06:02:07;5.67;;;3.40;;
4397;SDS011;2213;49.720;7.296;2022-09-02T06:04:38;3.67;;;3.27;;
4397;SDS011;2213;49.720;7.296;2022-09-02T06:07:09;5.00;;;3.47;;
4397;SDS011;2213;49.720;7.296;2022-09-02T06:09:39;8.23;;;3.37;;
4397;SDS011;2213;49.720;7.296;2022-09-02T06:12:10;3.80;;;3.23;;
4397;SDS011;2213;49.720;7.296;2022-09-02T06:14:41;4.90;;;3.40;;
4397;SDS011;2213;49.720;7.296;2022-09-02T06:17:11;6.10;;;3.43;;
4397;SDS011;2213;49.720;7.296;2022-09-02T06:19:40;4.90;;;3.47;;
4397;SDS011;2213;49.720;7.296;2022-09-02T06:22:09;4.47;;;2.93;;
4397;SDS011;2213;49.720;7.296;2022-09-02T06:24:38;9.40;;;4.37;;
4397;SDS011;2213;49.720;7.296;2022-09-02T06:27:07;4.20;;;3.03;;
4397;SDS011;2213;49.720;7.296;2022-09-02T06:29:36;4.03;;;3.30;;
4397;SDS011;2213;49.720;7.296;2022-09-02T06:32:06;4.90;;;3.00;;
4397;SDS011;2213;49.720;7.296;2022-09-02T06:34:35;7.20;;;3.20;;
4397;SDS011;2213;49.720;7.296;2022-09-02T06:37:04;4.37;;;3.50;;
4397;SDS011;2213;49.720;7.296;2022-09-02T06:39:33;7.37;;;3.67;;
4397;SDS011;2213;49.720;7.296;2022-09-02T06:42:03;6.30;;;3.70;;
4397;SDS011;2213;49.720;7.296;2022-09-02T06:44:33;7.30;;;3.77;;
4397;SDS011;2213;49.720;7.296;2022-09-02T06:47:03;5.03;;;3.30;;
4397;SDS011;2213;49.720;7.296;2022-09-02T06:49:34;3.27;;;2.90;;
4397;SDS011;2213;49.720;7.296;2022-09-02T06:52:03;5.13;;;3.10;;
4397;SDS011;2213;49.720;7.296;2022-09-02T06:54:31;3.97;;;3.07;;
4397;SDS011;2213;49.720;7.296;2022-09-02T06:57:01;4.97;;;3.20;;
4397;SDS011;2213;49.720;7.296;2022-09-02T06:59:30;4.97;;;3.17;;
4397;SDS011;2213;49.720;7.296;2022-09-02T07:02:00;5.73;;;3.30;;
4397;SDS011;2213;49.720;7.296;2022-09-02T07:04:29;5.30;;;3.00;;
4397;SDS011;2213;49.720;7.296;2022-09-02T07:07:22;2.70;;;2.50;;
4397;SDS011;2213;49.720;7.296;2022-09-02T07:09:51;2.80;;;2.60;;
4397;SDS011;2213;49.720;7.296;2022-09-02T07:12:20;3.73;;;2.60;;
4397;SDS011;2213;49.720;7.296;2022-09-02T07:14:52;2.73;;;2.33;;
4397;SDS011;2213;49.720;7.296;2022-09-02T07:17:21;2.20;;;2.00;;
4397;SDS011;2213;49.720;7.296;2022-09-02T07:19:51;3.00;;;2.40;;
4397;SDS011;2213;49.720;7.296;2022-09-02T07:22:23;3.50;;;2.00;;
4397;SDS011;2213;49.720;7.296;2022-09-02T07:24:51;2.70;;;2.10;;
4397;SDS011;2213;49.720;7.296;2022-09-02T07:27:21;5.77;;;2.53;;
4397;SDS011;2213;49.720;7.296;2022-09-02T07:29:50;4.67;;;2.37;;
4397;SDS011;2213;49.720;7.296;2022-09-02T07:32:20;3.17;;;2.10;;
4397;SDS011;2213;49.720;7.296;2022-09-02T07:34:49;5.07;;;2.70;;
4397;SDS011;2213;49.720;7.296;2022-09-02T07:37:17;4.63;;;2.60;;
4397;SDS011;2213;49.720;7.296;2022-09-02T07:39:51;2.67;;;2.13;;
4397;SDS011;2213;49.720;7.296;2022-09-02T07:42:19;4.20;;;2.20;;
4397;SDS011;2213;49.720;7.296;2022-09-02T07:44:50;4.13;;;2.03;;
4397;SDS011;2213;49.720;7.296;2022-09-02T07:47:18;9.77;;;2.40;;
4397;SDS011;2213;49.720;7.296;2022-09-02T07:49:47;2.80;;;2.23;;
4397;SDS011;2213;49.720;7.296;2022-09-02T07:52:36;3.57;;;2.70;;
4397;SDS011;2213;49.720;7.296;2022-09-02T07:55:09;2.90;;;2.17;;
4397;SDS011;2213;49.720;7.296;2022-09-02T07:57:40;3.40;;;2.23;;
4397;SDS011;2213;49.720;7.296;2022-09-02T08:00:10;3.27;;;2.20;;
4397;SDS011;2213;49.720;7.296;2022-09-02T08:02:40;1.87;;;1.70;;
4397;SDS011;2213;49.720;7.296;2022-09-02T08:05:10;2.93;;;2.00;;
4397;SDS011;2213;49.720;7.296;2022-09-02T08:07:40;4.93;;;1.87;;
4397;SDS011;2213;49.720;7.296;2022-09-02T08:10:11;3.33;;;1.93;;
4397;SDS011;2213;49.720;7.296;2022-09-02T08:12:42;3.30;;;2.13;;
4397;SDS011;2213;49.720;7.296;2022-09-02T08:15:12;8.30;;;2.63;;
4397;SDS011;2213;49.720;7.296;2022-09-02T08:17:42;2.00;;;1.70;;
4397;SDS011;2213;49.720;7.296;2022-09-02T08:20:14;2.43;;;2.00;;
4397;SDS011;2213;49.720;7.296;2022-09-02T08:22:44;2.30;;;1.90;;
4397;SDS011;2213;49.720;7.296;2022-09-02T08:25:31;5.03;;;2.10;;
4397;SDS011;2213;49.720;7.296;2022-09-02T08:28:02;3.17;;;1.93;;
4397;SDS011;2213;49.720;7.296;2022-09-02T08:30:31;3.90;;;1.90;;
4397;SDS011;2213;49.720;7.296;2022-09-02T08:33:01;2.87;;;1.70;;
4397;SDS011;2213;49.720;7.296;2022-09-02T08:35:30;3.50;;;1.60;;
4397;SDS011;2213;49.720;7.296;2022-09-02T08:37:59;1.93;;;1.73;;
4397;SDS011;2213;49.720;7.296;2022-09-02T08:40:30;3.43;;;1.93;;
4397;SDS011;2213;49.720;7.296;2022-09-02T08:43:13;2.97;;;2.10;;
4397;SDS011;2213;49.720;7.296;2022-09-02T08:45:57;2.47;;;1.67;;
4397;SDS011;2213;49.720;7.296;2022-09-02T08:48:32;5.53;;;1.67;;
4397;SDS011;2213;49.720;7.296;2022-09-02T08:51:09;1.60;;;1.43;;
4397;SDS011;2213;49.720;7.296;2022-09-02T08:53:49;2.67;;;1.90;;
4397;SDS011;2213;49.720;7.296;2022-09-02T08:56:26;3.77;;;1.97;;
4397;SDS011;2213;49.720;7.296;2022-09-02T08:58:56;11.07;;;1.90;;
4397;SDS011;2213;49.720;7.296;2022-09-02T09:01:29;3.80;;;2.00;;
4397;SDS011;2213;49.720;7.296;2022-09-02T09:04:16;2.80;;;1.97;;
4397;SDS011;2213;49.720;7.296;2022-09-02T09:07:02;4.10;;;1.80;;
4397;SDS011;2213;49.720;7.296;2022-09-02T09:10:02;2.77;;;2.20;;
4397;SDS011;2213;49.720;7.296;2022-09-02T09:16:06;2.83;;;2.00;;
4397;SDS011;2213;49.720;7.296;2022-09-02T09:18:47;2.27;;;1.80;;
4397;SDS011;2213;49.720;7.296;2022-09-02T09:21:32;3.30;;;1.60;;
4397;SDS011;2213;49.720;7.296;2022-09-02T09:24:01;3.47;;;1.70;;
4397;SDS011;2213;49.720;7.296;2022-09-02T09:26:49;2.07;;;1.67;;
4397;SDS011;2213;49.720;7.296;2022-09-02T09:29:22;2.00;;;1.40;;
4397;SDS011;2213;49.720;7.296;2022-09-02T09:31:53;2.73;;;1.20;;
4397;SDS011;2213;49.720;7.296;2022-09-02T09:37:33;3.20;;;1.87;;
4397;SDS011;2213;49.720;7.296;2022-09-02T09:40:22;2.33;;;1.90;;
4397;SDS011;2213;49.720;7.296;2022-09-02T09:42:57;2.53;;;1.33;;
4397;SDS011;2213;49.720;7.296;2022-09-02T09:45:51;2.27;;;1.57;;
4397;SDS011;2213;49.720;7.296;2022-09-02T09:48:22;7.13;;;1.53;;
4397;SDS011;2213;49.720;7.296;2022-09-02T09:51:10;2.40;;;1.60;;
4397;SDS011;2213;49.720;7.296;2022-09-02T09:53:42;2.37;;;1.67;;
4397;SDS011;2213;49.720;7.296;2022-09-02T09:59:06;2.67;;;1.60;;
4397;SDS011;2213;49.720;7.296;2022-09-02T10:02:04;4.37;;;1.70;;
4397;SDS011;2213;49.720;7.296;2022-09-02T10:04:33;2.93;;;1.67;;
4397;SDS011;2213;49.720;7.296;2022-09-02T10:07:09;4.93;;;1.33;;
4397;SDS011;2213;49.720;7.296;2022-09-02T10:09:40;2.63;;;1.60;;
4397;SDS011;2213;49.720;7.296;2022-09-02T10:12:11;5.63;;;1.93;;
4397;SDS011;2213;49.720;7.296;2022-09-02T10:14:42;6.30;;;1.80;;
4397;SDS011;2213;49.720;7.296;2022-09-02T10:17:18;6.00;;;1.50;;
4397;SDS011;2213;49.720;7.296;2022-09-02T10:20:09;3.20;;;1.60;;
4397;SDS011;2213;49.720;7.296;2022-09-02T10:23:04;2.00;;;1.50;;
4397;SDS011;2213;49.720;7.296;2022-09-02T10:25:52;2.23;;;1.57;;
4397;SDS011;2213;49.720;7.296;2022-09-02T10:28:39;4.40;;;1.57;;
4397;SDS011;2213;49.720;7.296;2022-09-02T10:32:02;1.73;;;1.63;;
4397;SDS011;2213;49.720;7.296;2022-09-02T10:34:59;2.00;;;1.43;;
4397;SDS011;2213;49.720;7.296;2022-09-02T10:37:38;13.43;;;1.47;;
4397;SDS011;2213;49.720;7.296;2022-09-02T10:40:32;2.27;;;1.40;;
4397;SDS011;2213;49.720;7.296;2022-09-02T10:43:10;2.60;;;1.47;;
4397;SDS011;2213;49.720;7.296;2022-09-02T10:45:59;1.70;;;1.30;;
4397;SDS011;2213;49.720;7.296;2022-09-02T10:48:40;4.80;;;1.50;;
4397;SDS011;2213;49.720;7.296;2022-09-02T10:51:26;1.73;;;1.40;;
4397;SDS011;2213;49.720;7.296;2022-09-02T10:54:11;2.60;;;1.50;;
4397;SDS011;2213;49.720;7.296;2022-09-02T10:56:57;4.70;;;1.83;;
4397;SDS011;2213;49.720;7.296;2022-09-02T10:59:36;11.30;;;1.70;;
4397;SDS011;2213;49.720;7.296;2022-09-02T11:02:15;1.63;;;1.13;;
4397;SDS011;2213;49.720;7.296;2022-09-02T11:04:53;2.50;;;1.70;;
4397;SDS011;2213;49.720;7.296;2022-09-02T11:07:28;4.50;;;1.37;;
4397;SDS011;2213;49.720;7.296;2022-09-02T11:10:06;1.90;;;1.60;;
4397;SDS011;2213;49.720;7.296;2022-09-02T11:12:44;7.43;;;1.77;;
4397;SDS011;2213;49.720;7.296;2022-09-02T11:15:22;1.97;;;1.40;;
4397;SDS011;2213;49.720;7.296;2022-09-02T11:18:11;2.90;;;1.50;;
4397;SDS011;2213;49.720;7.296;2022-09-02T11:20:55;1.83;;;1.20;;
4397;SDS011;2213;49.720;7.296;2022-09-02T11:23:34;1.93;;;1.43;;
4397;SDS011;2213;49.720;7.296;2022-09-02T11:26:13;2.07;;;1.60;;
4397;SDS011;2213;49.720;7.296;2022-09-02T11:28:49;5.90;;;2.00;;
4397;SDS011;2213;49.720;7.296;2022-09-02T11:31:26;4.53;;;1.80;;
4397;SDS011;2213;49.720;7.296;2022-09-02T11:34:07;1.97;;;1.50;;
4397;SDS011;2213;49.720;7.296;2022-09-02T11:36:49;5.40;;;1.80;;
4397;SDS011;2213;49.720;7.296;2022-09-02T11:39:20;2.93;;;1.60;;
4397;SDS011;2213;49.720;7.296;2022-09-02T11:42:22;2.00;;;1.50;;
4397;SDS011;2213;49.720;7.296;2022-09-02T11:45:32;3.07;;;1.47;;
4397;SDS011;2213;49.720;7.296;2022-09-02T11:48:38;2.50;;;1.70;;
4397;SDS011;2213;49.720;7.296;2022-09-02T11:51:49;3.07;;;1.70;;
4397;SDS011;2213;49.720;7.296;2022-09-02T11:55:00;10.43;;;1.70;;
4397;SDS011;2213;49.720;7.296;2022-09-02T11:57:37;2.17;;;1.50;;
4397;SDS011;2213;49.720;7.296;2022-09-02T12:00:23;1.90;;;1.70;;
4397;SDS011;2213;49.720;7.296;2022-09-02T12:02:58;2.50;;;1.63;;
4397;SDS011;2213;49.720;7.296;2022-09-02T12:06:09;4.63;;;1.30;;
4397;SDS011;2213;49.720;7.296;2022-09-02T12:11:49;2.33;;;1.53;;
4397;SDS011;2213;49.720;7.296;2022-09-02T12:17:44;3.37;;;1.70;;
4397;SDS011;2213;49.720;7.296;2022-09-02T12:27:07;3.47;;;1.73;;
4397;SDS011;2213;49.720;7.296;2022-09-02T12:30:03;2.83;;;1.67;;
4397;SDS011;2213;49.720;7.296;2022-09-02T12:35:48;5.43;;;1.60;;
4397;SDS011;2213;49.720;7.296;2022-09-02T12:38:23;3.23;;;1.50;;
4397;SDS011;2213;49.720;7.296;2022-09-02T12:41:22;2.37;;;1.30;;
4397;SDS011;2213;49.720;7.296;2022-09-02T12:44:00;3.53;;;2.07;;
4397;SDS011;2213;49.720;7.296;2022-09-02T12:46:55;3.30;;;1.60;;
4397;SDS011;2213;49.720;7.296;2022-09-02T12:49:45;1.90;;;1.40;;
4397;SDS011;2213;49.720;7.296;2022-09-02T12:52:40;2.33;;;1.67;;
4397;SDS011;2213;49.720;7.296;2022-09-02T12:55:20;1.53;;;1.37;;
4397;SDS011;2213;49.720;7.296;2022-09-02T12:57:54;2.07;;;1.60;;
4397;SDS011;2213;49.720;7.296;2022-09-02T13:00:37;4.07;;;1.53;;
4397;SDS011;2213;49.720;7.296;2022-09-02T13:03:29;3.83;;;1.70;;
4397;SDS011;2213;49.720;7.296;2022-09-02T13:06:21;1.70;;;1.40;;
4397;SDS011;2213;49.720;7.296;2022-09-02T13:12:24;2.33;;;1.53;;
4397;SDS011;2213;49.720;7.296;2022-09-02T13:15:34;4.67;;;1.90;;
4397;SDS011;2213;49.720;7.296;2022-09-02T13:25:10;2.40;;;1.40;;
4397;SDS011;2213;49.720;7.296;2022-09-02T13:28:34;1.60;;;1.30;;
4397;SDS011;2213;49.720;7.296;2022-09-02T13:31:37;1.63;;;1.30;;
4397;SDS011;2213;49.720;7.296;2022-09-02T13:34:09;2.90;;;1.67;;
4397;SDS011;2213;49.720;7.296;2022-09-02T13:36:40;2.13;;;1.50;;
4397;SDS011;2213;49.720;7.296;2022-09-02T13:39:12;2.03;;;1.50;;
4397;SDS011;2213;49.720;7.296;2022-09-02T13:41:44;3.10;;;1.40;;
4397;SDS011;2213;49.720;7.296;2022-09-02T13:44:20;2.07;;;1.30;;
4397;SDS011;2213;49.720;7.296;2022-09-02T13:46:52;1.60;;;1.30;;
4397;SDS011;2213;49.720;7.296;2022-09-02T13:49:29;2.10;;;1.40;;
4397;SDS011;2213;49.720;7.296;2022-09-02T13:52:04;4.40;;;1.33;;
4397;SDS011;2213;49.720;7.296;2022-09-02T13:54:42;2.03;;;1.40;;
4397;SDS011;2213;49.720;7.296;2022-09-02T13:57:17;2.53;;;1.60;;
4397;SDS011;2213;49.720;7.296;2022-09-02T13:59:53;6.03;;;1.30;;
4397;SDS011;2213;49.720;7.296;2022-09-02T14:02:24;2.33;;;1.37;;
4397;SDS011;2213;49.720;7.296;2022-09-02T14:04:57;2.87;;;1.50;;
4397;SDS011;2213;49.720;7.296;2022-09-02T14:07:31;1.80;;;1.53;;
4397;SDS011;2213;49.720;7.296;2022-09-02T14:10:07;1.90;;;1.53;;
4397;SDS011;2213;49.720;7.296;2022-09-02T14:12:42;1.40;;;1.20;;
4397;SDS011;2213;49.720;7.296;2022-09-02T14:15:15;9.67;;;1.67;;
4397;SDS011;2213;49.720;7.296;2022-09-02T14:18:07;4.10;;;1.53;;
4397;SDS011;2213;49.720;7.296;2022-09-02T14:20:54;1.87;;;1.47;;
4397;SDS011;2213;49.720;7.296;2022-09-02T14:23:28;1.47;;;1.30;;
4397;SDS011;2213;49.720;7.296;2022-09-02T14:26:01;3.33;;;1.27;;
4397;SDS011;2213;49.720;7.296;2022-09-02T14:28:33;3.37;;;1.40;;
4397;SDS011;2213;49.720;7.296;2022-09-02T14:31:05;1.70;;;1.33;;
4397;SDS011;2213;49.720;7.296;2022-09-02T14:33:41;2.10;;;1.40;;
4397;SDS011;2213;49.720;7.296;2022-09-02T14:36:28;7.60;;;1.60;;
4397;SDS011;2213;49.720;7.296;2022-09-02T14:39:08;7.53;;;1.80;;
4397;SDS011;2213;49.720;7.296;2022-09-02T14:41:42;3.30;;;1.30;;
4397;SDS011;2213;49.720;7.296;2022-09-02T14:44:16;2.27;;;1.30;;
4397;SDS011;2213;49.720;7.296;2022-09-02T14:46:55;5.57;;;1.50;;
4397;SDS011;2213;49.720;7.296;2022-09-02T14:49:28;1.93;;;1.50;;
4397;SDS011;2213;49.720;7.296;2022-09-02T14:52:09;7.03;;;1.43;;
4397;SDS011;2213;49.720;7.296;2022-09-02T14:54:47;4.63;;;1.50;;
4397;SDS011;2213;49.720;7.296;2022-09-02T14:57:19;1.77;;;1.40;;
4397;SDS011;2213;49.720;7.296;2022-09-02T14:59:58;1.90;;;1.33;;
4397;SDS011;2213;49.720;7.296;2022-09-02T15:02:30;2.27;;;1.30;;
4397;SDS011;2213;49.720;7.296;2022-09-02T15:05:02;2.60;;;1.23;;
4397;SDS011;2213;49.720;7.296;2022-09-02T15:07:34;6.80;;;1.40;;
4397;SDS011;2213;49.720;7.296;2022-09-02T15:10:03;2.30;;;1.37;;
4397;SDS011;2213;49.720;7.296;2022-09-02T15:12:34;1.90;;;1.20;;
4397;SDS011;2213;49.720;7.296;2022-09-02T15:15:12;1.80;;;1.30;;
4397;SDS011;2213;49.720;7.296;2022-09-02T15:17:42;1.87;;;1.30;;
4397;SDS011;2213;49.720;7.296;2022-09-02T15:20:11;2.03;;;1.40;;
4397;SDS011;2213;49.720;7.296;2022-09-02T15:22:40;4.23;;;1.40;;
4397;SDS011;2213;49.720;7.296;2022-09-02T15:25:09;1.30;;;1.20;;
4397;SDS011;2213;49.720;7.296;2022-09-02T15:27:38;2.77;;;1.70;;
4397;SDS011;2213;49.720;7.296;2022-09-02T15:30:07;1.77;;;1.53;;
4397;SDS011;2213;49.720;7.296;2022-09-02T15:32:39;2.20;;;1.33;;
4397;SDS011;2213;49.720;7.296;2022-09-02T15:35:09;2.67;;;1.70;;
4397;SDS011;2213;49.720;7.296;2022-09-02T15:37:38;2.50;;;1.50;;
4397;SDS011;2213;49.720;7.296;2022-09-02T15:40:07;3.20;;;1.57;;
4397;SDS011;2213;49.720;7.296;2022-09-02T15:42:38;4.13;;;1.40;;
4397;SDS011;2213;49.720;7.296;2022-09-02T15:45:08;3.53;;;1.47;;
4397;SDS011;2213;49.720;7.296;2022-09-02T15:47:39;1.90;;;1.50;;
4397;SDS011;2213;49.720;7.296;2022-09-02T15:50:09;2.87;;;1.50;;
4397;SDS011;2213;49.720;7.296;2022-09-02T15:52:40;2.10;;;1.33;;
4397;SDS011;2213;49.720;7.296;2022-09-02T15:55:12;3.17;;;1.60;;
4397;SDS011;2213;49.720;7.296;2022-09-02T15:57:41;1.77;;;1.43;;
4397;SDS011;2213;49.720;7.296;2022-09-02T16:00:11;1.80;;;1.60;;
4397;SDS011;2213;49.720;7.296;2022-09-02T16:02:41;1.87;;;1.13;;
4397;SDS011;2213;49.720;7.296;2022-09-02T16:05:13;5.43;;;1.47;;
4397;SDS011;2213;49.720;7.296;2022-09-02T16:07:42;2.70;;;1.50;;
4397;SDS011;2213;49.720;7.296;2022-09-02T16:10:11;2.83;;;1.40;;
4397;SDS011;2213;49.720;7.296;2022-09-02T16:12:40;12.40;;;2.03;;
4397;SDS011;2213;49.720;7.296;2022-09-02T16:15:09;3.90;;;2.30;;
4397;SDS011;2213;49.720;7.296;2022-09-02T16:17:38;1.80;;;1.30;;
4397;SDS011;2213;49.720;7.296;2022-09-02T16:20:07;4.13;;;1.33;;
4397;SDS011;2213;49.720;7.296;2022-09-02T16:22:44;2.63;;;2.43;;
4397;SDS011;2213;49.720;7.296;2022-09-02T16:25:13;2.10;;;1.20;;
4397;SDS011;2213;49.720;7.296;2022-09-02T16:27:42;1.93;;;1.43;;
4397;SDS011;2213;49.720;7.296;2022-09-02T16:30:22;2.03;;;1.23;;
4397;SDS011;2213;49.720;7.296;2022-09-02T16:32:52;1.97;;;1.37;;
4397;SDS011;2213;49.720;7.296;2022-09-02T16:35:20;1.50;;;1.10;;
4397;SDS011;2213;49.720;7.296;2022-09-02T16:37:51;1.60;;;1.30;;
4397;SDS011;2213;49.720;7.296;2022-09-02T16:40:22;2.20;;;1.50;;